sensor_id;sensor_type;location;lat;lon;timestamp;P1;durP1;ratioP1;P2;durP2;ratioP2
10450;SDS011;5273;51.290;6.918;2023-10-31T00:00:09;9.53;;;6.83;;
10450;SDS011;5273;51.290;6.918;2023-10-31T00:02:38;8.68;;;7.03;;
10450;SDS011;5273;51.290;6.918;2023-10-31T00:05:05;9.43;;;7.23;;
10450;SDS011;5273;51.290;6.918;2023-10-31T00:07:33;9.57;;;7.72;;
10450;SDS011;5273;51.290;6.918;2023-10-31T00:09:59;12.60;;;9.27;;
10450;SDS011;5273;51.290;6.918;2023-10-31T00:12:26;13.67;;;10.53;;
10450;SDS011;5273;51.290;6.918;2023-10-31T00:14:53;13.63;;;9.93;;
10450;SDS011;5273;51.290;6.918;2023-10-31T00:17:20;16.10;;;10.73;;
10450;SDS011;5273;51.290;6.918;2023-10-31T00:19:48;14.67;;;10.77;;
10450;SDS011;5273;51.290;6.918;2023-10-31T00:22:15;15.40;;;11.30;;
10450;SDS011;5273;51.290;6.918;2023-10-31T00:24:42;13.57;;;10.73;;
10450;SDS011;5273;51.290;6.918;2023-10-31T00:27:09;13.63;;;11.13;;
10450;SDS011;5273;51.290;6.918;2023-10-31T00:29:36;15.50;;;11.10;;
10450;SDS011;5273;51.290;6.918;2023-10-31T00:32:03;13.77;;;10.43;;
10450;SDS011;5273;51.290;6.918;2023-10-31T00:34:30;12.07;;;10.27;;
10450;SDS011;5273;51.290;6.918;2023-10-31T00:36:58;13.90;;;10.20;;
10450;SDS011;5273;51.290;6.918;2023-10-31T00:39:25;7.83;;;7.03;;
10450;SDS011;5273;51.290;6.918;2023-10-31T00:41:52;7.73;;;6.97;;
10450;SDS011;5273;51.290;6.918;2023-10-31T00:44:18;6.30;;;5.70;;
10450;SDS011;5273;51.290;6.918;2023-10-31T00:46:45;6.23;;;5.63;;
10450;SDS011;5273;51.290;6.918;2023-10-31T00:49:12;6.90;;;5.63;;
10450;SDS011;5273;51.290;6.918;2023-10-31T00:51:39;7.30;;;6.10;;
10450;SDS011;5273;51.290;6.918;2023-10-31T00:54:07;8.03;;;6.53;;
10450;SDS011;5273;51.290;6.918;2023-10-31T00:56:34;8.57;;;6.97;;
10450;SDS011;5273;51.290;6.918;2023-10-31T00:59:00;10.90;;;7.70;;
10450;SDS011;5273;51.290;6.918;2023-10-31T01:01:27;10.40;;;7.63;;
10450;SDS011;5273;51.290;6.918;2023-10-31T01:03:54;9.03;;;7.60;;
10450;SDS011;5273;51.290;6.918;2023-10-31T01:06:21;9.37;;;6.50;;
10450;SDS011;5273;51.290;6.918;2023-10-31T01:08:48;7.13;;;5.87;;
10450;SDS011;5273;51.290;6.918;2023-10-31T01:11:16;9.10;;;5.90;;
10450;SDS011;5273;51.290;6.918;2023-10-31T01:13:43;5.67;;;5.10;;
10450;SDS011;5273;51.290;6.918;2023-10-31T01:16:10;6.43;;;5.63;;
10450;SDS011;5273;51.290;6.918;2023-10-31T01:18:37;7.60;;;6.47;;
10450;SDS011;5273;51.290;6.918;2023-10-31T01:21:04;7.13;;;6.30;;
10450;SDS011;5273;51.290;6.918;2023-10-31T01:23:31;9.20;;;6.77;;
10450;SDS011;5273;51.290;6.918;2023-10-31T01:25:58;12.10;;;7.33;;
10450;SDS011;5273;51.290;6.918;2023-10-31T01:28:26;8.93;;;6.23;;
10450;SDS011;5273;51.290;6.918;2023-10-31T01:30:53;7.80;;;5.63;;
10450;SDS011;5273;51.290;6.918;2023-10-31T01:33:20;6.80;;;5.67;;
10450;SDS011;5273;51.290;6.918;2023-10-31T01:35:46;9.27;;;5.73;;
10450;SDS011;5273;51.290;6.918;2023-10-31T01:38:13;9.97;;;5.10;;
10450;SDS011;5273;51.290;6.918;2023-10-31T01:40:40;8.07;;;5.07;;
10450;SDS011;5273;51.290;6.918;2023-10-31T01:43:07;9.43;;;6.10;;
10450;SDS011;5273;51.290;6.918;2023-10-31T01:45:35;7.72;;;5.35;;
10450;SDS011;5273;51.290;6.918;2023-10-31T01:48:02;10.97;;;5.47;;
10450;SDS011;5273;51.290;6.918;2023-10-31T01:50:29;12.23;;;5.40;;
10450;SDS011;5273;51.290;6.918;2023-10-31T01:52:56;7.67;;;5.27;;
10450;SDS011;5273;51.290;6.918;2023-10-31T01:55:23;9.95;;;5.30;;
10450;SDS011;5273;51.290;6.918;2023-10-31T01:57:52;10.07;;;5.67;;
10450;SDS011;5273;51.290;6.918;2023-10-31T02:00:20;9.80;;;5.93;;
10450;SDS011;5273;51.290;6.918;2023-10-31T02:02:48;10.80;;;6.63;;
10450;SDS011;5273;51.290;6.918;2023-10-31T02:05:19;10.00;;;6.97;;
10450;SDS011;5273;51.290;6.918;2023-10-31T02:07:46;13.07;;;7.20;;
10450;SDS011;5273;51.290;6.918;2023-10-31T02:10:13;15.80;;;7.43;;
10450;SDS011;5273;51.290;6.918;2023-10-31T02:12:39;10.30;;;7.17;;
10450;SDS011;5273;51.290;6.918;2023-10-31T02:15:07;10.97;;;7.60;;
10450;SDS011;5273;51.290;6.918;2023-10-31T02:17:35;13.00;;;7.07;;
10450;SDS011;5273;51.290;6.918;2023-10-31T02:20:03;12.97;;;8.20;;
10450;SDS011;5273;51.290;6.918;2023-10-31T02:22:32;12.40;;;7.63;;
10450;SDS011;5273;51.290;6.918;2023-10-31T02:24:59;14.47;;;8.63;;
10450;SDS011;5273;51.290;6.918;2023-10-31T02:27:26;15.37;;;8.90;;
10450;SDS011;5273;51.290;6.918;2023-10-31T02:29:53;14.50;;;8.70;;
10450;SDS011;5273;51.290;6.918;2023-10-31T02:32:19;19.08;;;10.15;;
10450;SDS011;5273;51.290;6.918;2023-10-31T02:34:46;17.57;;;9.50;;
10450;SDS011;5273;51.290;6.918;2023-10-31T02:37:14;17.20;;;9.87;;
10450;SDS011;5273;51.290;6.918;2023-10-31T02:39:42;15.13;;;9.57;;
10450;SDS011;5273;51.290;6.918;2023-10-31T02:42:09;18.42;;;10.35;;
10450;SDS011;5273;51.290;6.918;2023-10-31T02:44:35;14.90;;;9.53;;
10450;SDS011;5273;51.290;6.918;2023-10-31T02:47:02;18.80;;;10.37;;
10450;SDS011;5273;51.290;6.918;2023-10-31T02:49:30;22.97;;;10.73;;
10450;SDS011;5273;51.290;6.918;2023-10-31T02:51:56;17.67;;;10.00;;
10450;SDS011;5273;51.290;6.918;2023-10-31T02:54:23;18.40;;;9.90;;
10450;SDS011;5273;51.290;6.918;2023-10-31T02:56:52;21.13;;;10.17;;
10450;SDS011;5273;51.290;6.918;2023-10-31T02:59:18;18.77;;;10.53;;
10450;SDS011;5273;51.290;6.918;2023-10-31T03:01:45;19.00;;;11.53;;
10450;SDS011;5273;51.290;6.918;2023-10-31T03:04:12;20.70;;;10.57;;
10450;SDS011;5273;51.290;6.918;2023-10-31T03:06:39;19.50;;;10.73;;
10450;SDS011;5273;51.290;6.918;2023-10-31T03:09:06;21.38;;;11.52;;
10450;SDS011;5273;51.290;6.918;2023-10-31T03:11:33;24.23;;;11.90;;
10450;SDS011;5273;51.290;6.918;2023-10-31T03:14:01;23.20;;;11.47;;
10450;SDS011;5273;51.290;6.918;2023-10-31T03:16:28;20.95;;;11.82;;
10450;SDS011;5273;51.290;6.918;2023-10-31T03:18:54;23.03;;;11.13;;
10450;SDS011;5273;51.290;6.918;2023-10-31T03:21:22;24.17;;;12.18;;
10450;SDS011;5273;51.290;6.918;2023-10-31T03:23:49;21.17;;;12.00;;
10450;SDS011;5273;51.290;6.918;2023-10-31T03:26:18;27.07;;;11.83;;
10450;SDS011;5273;51.290;6.918;2023-10-31T03:28:45;22.00;;;11.20;;
10450;SDS011;5273;51.290;6.918;2023-10-31T03:31:13;26.63;;;11.03;;
10450;SDS011;5273;51.290;6.918;2023-10-31T03:33:41;19.47;;;11.10;;
10450;SDS011;5273;51.290;6.918;2023-10-31T03:36:08;19.93;;;10.87;;
10450;SDS011;5273;51.290;6.918;2023-10-31T03:38:35;20.90;;;10.87;;
10450;SDS011;5273;51.290;6.918;2023-10-31T03:41:03;19.38;;;10.95;;
10450;SDS011;5273;51.290;6.918;2023-10-31T03:43:30;20.73;;;11.07;;
10450;SDS011;5273;51.290;6.918;2023-10-31T03:45:56;20.43;;;11.40;;
10450;SDS011;5273;51.290;6.918;2023-10-31T03:48:25;20.47;;;12.50;;
10450;SDS011;5273;51.290;6.918;2023-10-31T03:50:52;20.90;;;11.70;;
10450;SDS011;5273;51.290;6.918;2023-10-31T03:53:19;23.05;;;12.63;;
10450;SDS011;5273;51.290;6.918;2023-10-31T03:55:45;19.08;;;10.40;;
10450;SDS011;5273;51.290;6.918;2023-10-31T03:58:12;20.87;;;11.27;;
10450;SDS011;5273;51.290;6.918;2023-10-31T04:00:39;18.50;;;10.40;;
10450;SDS011;5273;51.290;6.918;2023-10-31T04:03:06;18.00;;;9.73;;
10450;SDS011;5273;51.290;6.918;2023-10-31T04:05:34;14.97;;;8.97;;
10450;SDS011;5273;51.290;6.918;2023-10-31T04:08:02;17.37;;;9.97;;
10450;SDS011;5273;51.290;6.918;2023-10-31T04:10:29;16.95;;;9.98;;
10450;SDS011;5273;51.290;6.918;2023-10-31T04:12:56;16.50;;;9.20;;
10450;SDS011;5273;51.290;6.918;2023-10-31T04:15:22;17.88;;;9.85;;
10450;SDS011;5273;51.290;6.918;2023-10-31T04:17:49;18.07;;;9.87;;
10450;SDS011;5273;51.290;6.918;2023-10-31T04:20:16;20.02;;;10.18;;
10450;SDS011;5273;51.290;6.918;2023-10-31T04:22:44;15.20;;;9.50;;
10450;SDS011;5273;51.290;6.918;2023-10-31T04:25:11;16.20;;;9.50;;
10450;SDS011;5273;51.290;6.918;2023-10-31T04:27:38;18.27;;;10.30;;
10450;SDS011;5273;51.290;6.918;2023-10-31T04:30:05;16.63;;;9.97;;
10450;SDS011;5273;51.290;6.918;2023-10-31T04:32:33;17.43;;;9.03;;
10450;SDS011;5273;51.290;6.918;2023-10-31T04:34:59;17.80;;;10.02;;
10450;SDS011;5273;51.290;6.918;2023-10-31T04:37:26;18.53;;;9.73;;
10450;SDS011;5273;51.290;6.918;2023-10-31T04:39:54;16.07;;;8.97;;
10450;SDS011;5273;51.290;6.918;2023-10-31T04:42:21;16.10;;;9.40;;
10450;SDS011;5273;51.290;6.918;2023-10-31T04:44:48;15.40;;;8.87;;
10450;SDS011;5273;51.290;6.918;2023-10-31T04:47:15;15.87;;;10.00;;
10450;SDS011;5273;51.290;6.918;2023-10-31T04:49:42;19.97;;;10.83;;
10450;SDS011;5273;51.290;6.918;2023-10-31T04:52:08;17.40;;;10.10;;
10450;SDS011;5273;51.290;6.918;2023-10-31T04:54:35;14.47;;;9.33;;
10450;SDS011;5273;51.290;6.918;2023-10-31T04:57:03;17.43;;;10.20;;
10450;SDS011;5273;51.290;6.918;2023-10-31T04:59:30;16.83;;;9.73;;
10450;SDS011;5273;51.290;6.918;2023-10-31T05:01:57;18.37;;;9.77;;
10450;SDS011;5273;51.290;6.918;2023-10-31T05:04:24;17.87;;;9.40;;
10450;SDS011;5273;51.290;6.918;2023-10-31T05:06:51;16.80;;;9.63;;
10450;SDS011;5273;51.290;6.918;2023-10-31T05:09:18;14.52;;;9.30;;
10450;SDS011;5273;51.290;6.918;2023-10-31T05:11:45;18.57;;;9.30;;
10450;SDS011;5273;51.290;6.918;2023-10-31T05:14:13;15.25;;;9.73;;
10450;SDS011;5273;51.290;6.918;2023-10-31T05:16:41;21.20;;;10.70;;
10450;SDS011;5273;51.290;6.918;2023-10-31T05:19:08;15.13;;;9.52;;
10450;SDS011;5273;51.290;6.918;2023-10-31T05:21:34;13.57;;;9.17;;
10450;SDS011;5273;51.290;6.918;2023-10-31T05:24:02;15.52;;;9.75;;
10450;SDS011;5273;51.290;6.918;2023-10-31T05:26:29;17.03;;;10.93;;
10450;SDS011;5273;51.290;6.918;2023-10-31T05:28:56;15.43;;;9.53;;
10450;SDS011;5273;51.290;6.918;2023-10-31T05:31:24;16.10;;;9.88;;
10450;SDS011;5273;51.290;6.918;2023-10-31T05:33:51;15.95;;;10.43;;
10450;SDS011;5273;51.290;6.918;2023-10-31T05:36:18;16.13;;;10.02;;
10450;SDS011;5273;51.290;6.918;2023-10-31T05:38:46;15.97;;;10.43;;
10450;SDS011;5273;51.290;6.918;2023-10-31T05:41:13;16.37;;;10.67;;
10450;SDS011;5273;51.290;6.918;2023-10-31T05:43:40;17.60;;;11.63;;
10450;SDS011;5273;51.290;6.918;2023-10-31T05:46:07;17.80;;;10.23;;
10450;SDS011;5273;51.290;6.918;2023-10-31T05:48:38;16.52;;;10.32;;
10450;SDS011;5273;51.290;6.918;2023-10-31T05:51:10;25.07;;;10.67;;
10450;SDS011;5273;51.290;6.918;2023-10-31T05:53:38;19.13;;;11.10;;
10450;SDS011;5273;51.290;6.918;2023-10-31T05:56:06;19.73;;;11.23;;
10450;SDS011;5273;51.290;6.918;2023-10-31T05:58:34;18.57;;;10.63;;
10450;SDS011;5273;51.290;6.918;2023-10-31T06:01:01;21.70;;;11.87;;
10450;SDS011;5273;51.290;6.918;2023-10-31T06:03:28;19.02;;;10.05;;
10450;SDS011;5273;51.290;6.918;2023-10-31T06:05:56;18.03;;;10.27;;
10450;SDS011;5273;51.290;6.918;2023-10-31T06:08:23;16.70;;;10.67;;
10450;SDS011;5273;51.290;6.918;2023-10-31T06:10:53;18.77;;;10.23;;
10450;SDS011;5273;51.290;6.918;2023-10-31T06:13:20;15.67;;;10.23;;
10450;SDS011;5273;51.290;6.918;2023-10-31T06:15:47;19.25;;;10.63;;
10450;SDS011;5273;51.290;6.918;2023-10-31T06:18:13;12.97;;;9.50;;
10450;SDS011;5273;51.290;6.918;2023-10-31T06:20:40;16.00;;;9.87;;
10450;SDS011;5273;51.290;6.918;2023-10-31T06:23:09;14.57;;;9.63;;
10450;SDS011;5273;51.290;6.918;2023-10-31T06:25:36;15.80;;;10.00;;
10450;SDS011;5273;51.290;6.918;2023-10-31T06:28:02;16.17;;;9.63;;
10450;SDS011;5273;51.290;6.918;2023-10-31T06:30:29;15.70;;;9.57;;
10450;SDS011;5273;51.290;6.918;2023-10-31T06:32:56;16.02;;;9.70;;
10450;SDS011;5273;51.290;6.918;2023-10-31T06:35:24;15.20;;;9.50;;
10450;SDS011;5273;51.290;6.918;2023-10-31T06:37:51;16.20;;;10.13;;
10450;SDS011;5273;51.290;6.918;2023-10-31T06:40:20;13.47;;;9.37;;
10450;SDS011;5273;51.290;6.918;2023-10-31T06:42:47;17.40;;;10.30;;
10450;SDS011;5273;51.290;6.918;2023-10-31T06:45:13;14.93;;;9.87;;
10450;SDS011;5273;51.290;6.918;2023-10-31T06:47:40;16.93;;;10.77;;
10450;SDS011;5273;51.290;6.918;2023-10-31T06:50:08;18.40;;;10.80;;
10450;SDS011;5273;51.290;6.918;2023-10-31T06:52:35;18.77;;;11.03;;
10450;SDS011;5273;51.290;6.918;2023-10-31T06:55:02;18.73;;;11.30;;
10450;SDS011;5273;51.290;6.918;2023-10-31T06:57:31;20.00;;;12.07;;
10450;SDS011;5273;51.290;6.918;2023-10-31T06:59:57;22.30;;;12.53;;
10450;SDS011;5273;51.290;6.918;2023-10-31T07:02:24;15.80;;;10.77;;
10450;SDS011;5273;51.290;6.918;2023-10-31T07:04:51;19.13;;;11.73;;
10450;SDS011;5273;51.290;6.918;2023-10-31T07:07:18;19.43;;;12.00;;
10450;SDS011;5273;51.290;6.918;2023-10-31T07:09:45;19.03;;;12.07;;
10450;SDS011;5273;51.290;6.918;2023-10-31T07:12:12;20.80;;;12.30;;
10450;SDS011;5273;51.290;6.918;2023-10-31T07:14:40;21.00;;;12.23;;
10450;SDS011;5273;51.290;6.918;2023-10-31T07:17:07;18.57;;;12.93;;
10450;SDS011;5273;51.290;6.918;2023-10-31T07:19:34;18.17;;;12.40;;
10450;SDS011;5273;51.290;6.918;2023-10-31T07:22:01;20.83;;;12.87;;
10450;SDS011;5273;51.290;6.918;2023-10-31T07:24:28;18.83;;;12.23;;
10450;SDS011;5273;51.290;6.918;2023-10-31T07:26:55;20.27;;;11.98;;
10450;SDS011;5273;51.290;6.918;2023-10-31T07:29:22;20.87;;;12.67;;
10450;SDS011;5273;51.290;6.918;2023-10-31T07:31:50;18.73;;;12.98;;
10450;SDS011;5273;51.290;6.918;2023-10-31T07:34:17;22.03;;;12.70;;
10450;SDS011;5273;51.290;6.918;2023-10-31T07:36:44;17.33;;;12.07;;
10450;SDS011;5273;51.290;6.918;2023-10-31T07:39:11;17.67;;;11.43;;
10450;SDS011;5273;51.290;6.918;2023-10-31T07:41:39;19.90;;;12.53;;
10450;SDS011;5273;51.290;6.918;2023-10-31T07:44:06;16.00;;;11.33;;
10450;SDS011;5273;51.290;6.918;2023-10-31T07:46:33;16.80;;;11.57;;
10450;SDS011;5273;51.290;6.918;2023-10-31T07:49:01;20.95;;;12.23;;
10450;SDS011;5273;51.290;6.918;2023-10-31T07:51:28;14.35;;;11.25;;
10450;SDS011;5273;51.290;6.918;2023-10-31T07:53:54;18.57;;;12.40;;
10450;SDS011;5273;51.290;6.918;2023-10-31T07:56:23;17.00;;;11.47;;
10450;SDS011;5273;51.290;6.918;2023-10-31T07:58:50;20.67;;;11.03;;
10450;SDS011;5273;51.290;6.918;2023-10-31T08:01:17;18.07;;;11.93;;
10450;SDS011;5273;51.290;6.918;2023-10-31T08:03:45;20.73;;;11.77;;
10450;SDS011;5273;51.290;6.918;2023-10-31T08:06:13;18.47;;;10.93;;
10450;SDS011;5273;51.290;6.918;2023-10-31T08:08:40;17.80;;;11.83;;
10450;SDS011;5273;51.290;6.918;2023-10-31T08:11:07;20.23;;;11.47;;
10450;SDS011;5273;51.290;6.918;2023-10-31T08:13:35;16.77;;;11.47;;
10450;SDS011;5273;51.290;6.918;2023-10-31T08:16:03;18.00;;;12.00;;
10450;SDS011;5273;51.290;6.918;2023-10-31T08:18:30;15.20;;;10.47;;
10450;SDS011;5273;51.290;6.918;2023-10-31T08:20:57;19.90;;;11.07;;
10450;SDS011;5273;51.290;6.918;2023-10-31T08:23:26;17.50;;;11.10;;
10450;SDS011;5273;51.290;6.918;2023-10-31T08:25:54;14.97;;;10.00;;
10450;SDS011;5273;51.290;6.918;2023-10-31T08:28:21;13.90;;;10.23;;
10450;SDS011;5273;51.290;6.918;2023-10-31T08:30:48;13.20;;;9.03;;
10450;SDS011;5273;51.290;6.918;2023-10-31T08:33:14;13.93;;;10.07;;
10450;SDS011;5273;51.290;6.918;2023-10-31T08:35:41;14.97;;;9.40;;
10450;SDS011;5273;51.290;6.918;2023-10-31T08:38:08;14.73;;;8.70;;
10450;SDS011;5273;51.290;6.918;2023-10-31T08:40:37;10.63;;;8.87;;
10450;SDS011;5273;51.290;6.918;2023-10-31T08:43:03;15.85;;;9.60;;
10450;SDS011;5273;51.290;6.918;2023-10-31T08:45:31;13.20;;;9.27;;
10450;SDS011;5273;51.290;6.918;2023-10-31T08:47:58;12.73;;;8.60;;
10450;SDS011;5273;51.290;6.918;2023-10-31T08:50:25;11.13;;;8.20;;
10450;SDS011;5273;51.290;6.918;2023-10-31T08:52:52;12.93;;;8.35;;
10450;SDS011;5273;51.290;6.918;2023-10-31T08:55:19;9.05;;;7.80;;
10450;SDS011;5273;51.290;6.918;2023-10-31T08:57:47;10.75;;;8.10;;
10450;SDS011;5273;51.290;6.918;2023-10-31T09:00:15;8.93;;;7.83;;
10450;SDS011;5273;51.290;6.918;2023-10-31T09:02:42;9.32;;;7.53;;
10450;SDS011;5273;51.290;6.918;2023-10-31T09:05:09;9.32;;;7.18;;
10450;SDS011;5273;51.290;6.918;2023-10-31T09:07:35;10.10;;;7.80;;
10450;SDS011;5273;51.290;6.918;2023-10-31T09:10:02;8.68;;;7.38;;
10450;SDS011;5273;51.290;6.918;2023-10-31T09:12:30;8.82;;;6.93;;
10450;SDS011;5273;51.290;6.918;2023-10-31T09:14:58;10.38;;;7.80;;
10450;SDS011;5273;51.290;6.918;2023-10-31T09:17:26;8.85;;;7.18;;
10450;SDS011;5273;51.290;6.918;2023-10-31T09:19:53;11.55;;;7.45;;
10450;SDS011;5273;51.290;6.918;2023-10-31T09:22:19;8.80;;;7.90;;
10450;SDS011;5273;51.290;6.918;2023-10-31T09:24:46;10.52;;;8.00;;
10450;SDS011;5273;51.290;6.918;2023-10-31T09:27:13;11.50;;;7.45;;
10450;SDS011;5273;51.290;6.918;2023-10-31T09:29:40;10.73;;;6.63;;
10450;SDS011;5273;51.290;6.918;2023-10-31T09:32:09;10.05;;;6.72;;
10450;SDS011;5273;51.290;6.918;2023-10-31T09:34:35;7.32;;;6.40;;
10450;SDS011;5273;51.290;6.918;2023-10-31T09:37:03;9.60;;;7.43;;
10450;SDS011;5273;51.290;6.918;2023-10-31T09:39:29;9.32;;;6.90;;
10450;SDS011;5273;51.290;6.918;2023-10-31T09:41:57;9.35;;;7.00;;
10450;SDS011;5273;51.290;6.918;2023-10-31T09:44:24;8.57;;;6.70;;
10450;SDS011;5273;51.290;6.918;2023-10-31T09:46:51;8.38;;;7.45;;
10450;SDS011;5273;51.290;6.918;2023-10-31T09:49:19;9.88;;;7.80;;
10450;SDS011;5273;51.290;6.918;2023-10-31T09:51:46;12.30;;;8.13;;
10450;SDS011;5273;51.290;6.918;2023-10-31T09:54:14;9.93;;;8.48;;
10450;SDS011;5273;51.290;6.918;2023-10-31T09:56:42;11.10;;;8.27;;
10450;SDS011;5273;51.290;6.918;2023-10-31T09:59:09;9.25;;;8.18;;
10450;SDS011;5273;51.290;6.918;2023-10-31T10:01:36;9.73;;;7.65;;
10450;SDS011;5273;51.290;6.918;2023-10-31T10:04:03;10.40;;;7.50;;
10450;SDS011;5273;51.290;6.918;2023-10-31T10:06:32;11.27;;;6.63;;
10450;SDS011;5273;51.290;6.918;2023-10-31T10:08:59;8.20;;;6.43;;
10450;SDS011;5273;51.290;6.918;2023-10-31T10:11:29;12.00;;;7.18;;
10450;SDS011;5273;51.290;6.918;2023-10-31T10:13:56;7.22;;;6.43;;
10450;SDS011;5273;51.290;6.918;2023-10-31T10:16:29;8.73;;;6.30;;
10450;SDS011;5273;51.290;6.918;2023-10-31T10:18:57;7.97;;;6.68;;
10450;SDS011;5273;51.290;6.918;2023-10-31T10:21:47;7.88;;;5.80;;
10450;SDS011;5273;51.290;6.918;2023-10-31T10:24:15;7.10;;;6.07;;
10450;SDS011;5273;51.290;6.918;2023-10-31T10:26:42;9.20;;;6.18;;
10450;SDS011;5273;51.290;6.918;2023-10-31T10:29:09;8.07;;;5.65;;
10450;SDS011;5273;51.290;6.918;2023-10-31T10:31:34;7.35;;;5.00;;
10450;SDS011;5273;51.290;6.918;2023-10-31T10:34:01;6.82;;;5.05;;
10450;SDS011;5273;51.290;6.918;2023-10-31T10:36:28;8.27;;;5.15;;
10450;SDS011;5273;51.290;6.918;2023-10-31T10:38:59;9.60;;;4.93;;
10450;SDS011;5273;51.290;6.918;2023-10-31T10:41:27;7.25;;;4.82;;
10450;SDS011;5273;51.290;6.918;2023-10-31T10:43:55;5.97;;;4.70;;
10450;SDS011;5273;51.290;6.918;2023-10-31T10:46:31;7.68;;;4.15;;
10450;SDS011;5273;51.290;6.918;2023-10-31T10:49:02;5.63;;;4.30;;
10450;SDS011;5273;51.290;6.918;2023-10-31T10:51:34;5.82;;;4.03;;
10450;SDS011;5273;51.290;6.918;2023-10-31T10:54:11;8.02;;;4.32;;
10450;SDS011;5273;51.290;6.918;2023-10-31T10:56:48;6.03;;;4.25;;
10450;SDS011;5273;51.290;6.918;2023-10-31T10:59:21;7.72;;;4.03;;
10450;SDS011;5273;51.290;6.918;2023-10-31T11:01:56;5.10;;;3.30;;
10450;SDS011;5273;51.290;6.918;2023-10-31T11:04:25;5.15;;;2.88;;
10450;SDS011;5273;51.290;6.918;2023-10-31T11:06:52;6.20;;;2.50;;
10450;SDS011;5273;51.290;6.918;2023-10-31T11:09:22;4.93;;;2.60;;
10450;SDS011;5273;51.290;6.918;2023-10-31T11:11:50;3.90;;;2.50;;
10450;SDS011;5273;51.290;6.918;2023-10-31T11:14:17;4.28;;;2.60;;
10450;SDS011;5273;51.290;6.918;2023-10-31T11:16:46;5.57;;;2.67;;
10450;SDS011;5273;51.290;6.918;2023-10-31T11:19:16;4.13;;;2.55;;
10450;SDS011;5273;51.290;6.918;2023-10-31T11:21:53;5.32;;;2.88;;
10450;SDS011;5273;51.290;6.918;2023-10-31T11:24:22;4.80;;;2.72;;
10450;SDS011;5273;51.290;6.918;2023-10-31T11:26:53;6.93;;;2.75;;
10450;SDS011;5273;51.290;6.918;2023-10-31T11:29:24;5.88;;;2.90;;
10450;SDS011;5273;51.290;6.918;2023-10-31T11:31:51;3.30;;;2.42;;
10450;SDS011;5273;51.290;6.918;2023-10-31T11:34:18;3.42;;;2.40;;
10450;SDS011;5273;51.290;6.918;2023-10-31T11:36:46;6.15;;;2.33;;
10450;SDS011;5273;51.290;6.918;2023-10-31T11:39:13;4.75;;;2.30;;
10450;SDS011;5273;51.290;6.918;2023-10-31T11:41:46;5.32;;;2.60;;
10450;SDS011;5273;51.290;6.918;2023-10-31T11:44:15;2.58;;;1.83;;
10450;SDS011;5273;51.290;6.918;2023-10-31T11:46:42;5.97;;;2.17;;
10450;SDS011;5273;51.290;6.918;2023-10-31T11:49:12;3.28;;;2.30;;
10450;SDS011;5273;51.290;6.918;2023-10-31T11:51:39;4.60;;;1.98;;
10450;SDS011;5273;51.290;6.918;2023-10-31T11:54:07;4.93;;;2.30;;
10450;SDS011;5273;51.290;6.918;2023-10-31T11:56:34;2.58;;;1.67;;
10450;SDS011;5273;51.290;6.918;2023-10-31T11:59:02;3.00;;;2.28;;
10450;SDS011;5273;51.290;6.918;2023-10-31T12:01:31;4.90;;;2.20;;
10450;SDS011;5273;51.290;6.918;2023-10-31T12:04:00;5.28;;;2.30;;
10450;SDS011;5273;51.290;6.918;2023-10-31T12:06:28;4.90;;;1.83;;
10450;SDS011;5273;51.290;6.918;2023-10-31T12:08:58;5.80;;;2.53;;
10450;SDS011;5273;51.290;6.918;2023-10-31T12:11:27;3.47;;;2.10;;
10450;SDS011;5273;51.290;6.918;2023-10-31T12:13:55;3.25;;;2.58;;
10450;SDS011;5273;51.290;6.918;2023-10-31T12:16:25;2.83;;;1.77;;
10450;SDS011;5273;51.290;6.918;2023-10-31T12:18:56;4.60;;;2.50;;
10450;SDS011;5273;51.290;6.918;2023-10-31T12:21:36;4.03;;;2.33;;
10450;SDS011;5273;51.290;6.918;2023-10-31T12:24:04;5.00;;;2.50;;
10450;SDS011;5273;51.290;6.918;2023-10-31T12:26:32;5.18;;;2.13;;
10450;SDS011;5273;51.290;6.918;2023-10-31T12:29:06;2.88;;;2.63;;
10450;SDS011;5273;51.290;6.918;2023-10-31T12:31:35;2.92;;;2.28;;
10450;SDS011;5273;51.290;6.918;2023-10-31T12:34:05;4.72;;;2.33;;
10450;SDS011;5273;51.290;6.918;2023-10-31T12:36:33;5.28;;;2.60;;
10450;SDS011;5273;51.290;6.918;2023-10-31T12:39:01;3.10;;;2.05;;
10450;SDS011;5273;51.290;6.918;2023-10-31T12:41:29;2.78;;;2.15;;
10450;SDS011;5273;51.290;6.918;2023-10-31T12:43:56;3.25;;;2.33;;
10450;SDS011;5273;51.290;6.918;2023-10-31T12:46:27;4.22;;;2.25;;
10450;SDS011;5273;51.290;6.918;2023-10-31T12:48:56;4.80;;;2.13;;
10450;SDS011;5273;51.290;6.918;2023-10-31T12:51:23;3.53;;;2.40;;
10450;SDS011;5273;51.290;6.918;2023-10-31T12:53:51;3.47;;;2.30;;
10450;SDS011;5273;51.290;6.918;2023-10-31T12:56:34;5.53;;;2.35;;
10450;SDS011;5273;51.290;6.918;2023-10-31T12:59:03;2.20;;;2.00;;
10450;SDS011;5273;51.290;6.918;2023-10-31T13:01:30;3.30;;;2.10;;
10450;SDS011;5273;51.290;6.918;2023-10-31T13:03:58;3.85;;;2.33;;
10450;SDS011;5273;51.290;6.918;2023-10-31T13:06:25;2.85;;;2.00;;
10450;SDS011;5273;51.290;6.918;2023-10-31T13:08:54;3.20;;;2.42;;
10450;SDS011;5273;51.290;6.918;2023-10-31T13:11:21;3.80;;;1.98;;
10450;SDS011;5273;51.290;6.918;2023-10-31T13:13:50;3.95;;;2.33;;
10450;SDS011;5273;51.290;6.918;2023-10-31T13:16:18;2.95;;;1.90;;
10450;SDS011;5273;51.290;6.918;2023-10-31T13:18:44;3.33;;;1.90;;
10450;SDS011;5273;51.290;6.918;2023-10-31T13:21:13;6.28;;;2.17;;
10450;SDS011;5273;51.290;6.918;2023-10-31T13:23:42;4.35;;;2.17;;
10450;SDS011;5273;51.290;6.918;2023-10-31T13:26:10;3.67;;;2.03;;
10450;SDS011;5273;51.290;6.918;2023-10-31T13:28:37;5.50;;;2.10;;
10450;SDS011;5273;51.290;6.918;2023-10-31T13:31:04;2.85;;;1.90;;
10450;SDS011;5273;51.290;6.918;2023-10-31T13:33:31;2.45;;;2.00;;
10450;SDS011;5273;51.290;6.918;2023-10-31T13:35:59;2.67;;;1.80;;
10450;SDS011;5273;51.290;6.918;2023-10-31T13:38:27;2.50;;;1.88;;
10450;SDS011;5273;51.290;6.918;2023-10-31T13:40:53;3.25;;;1.83;;
10450;SDS011;5273;51.290;6.918;2023-10-31T13:43:20;3.33;;;1.83;;
10450;SDS011;5273;51.290;6.918;2023-10-31T13:45:47;3.00;;;1.98;;
10450;SDS011;5273;51.290;6.918;2023-10-31T13:48:14;2.95;;;1.63;;
10450;SDS011;5273;51.290;6.918;2023-10-31T13:50:41;3.05;;;1.60;;
10450;SDS011;5273;51.290;6.918;2023-10-31T13:53:08;2.97;;;1.48;;
10450;SDS011;5273;51.290;6.918;2023-10-31T13:55:36;1.85;;;1.50;;
10450;SDS011;5273;51.290;6.918;2023-10-31T13:58:03;3.35;;;1.70;;
10450;SDS011;5273;51.290;6.918;2023-10-31T14:00:30;4.03;;;1.80;;
10450;SDS011;5273;51.290;6.918;2023-10-31T14:02:56;1.48;;;1.30;;
10450;SDS011;5273;51.290;6.918;2023-10-31T14:05:23;2.08;;;1.30;;
10450;SDS011;5273;51.290;6.918;2023-10-31T14:07:50;2.92;;;1.65;;
10450;SDS011;5273;51.290;6.918;2023-10-31T14:10:17;2.10;;;1.40;;
10450;SDS011;5273;51.290;6.918;2023-10-31T14:12:46;4.60;;;1.95;;
10450;SDS011;5273;51.290;6.918;2023-10-31T14:15:13;2.53;;;1.35;;
10450;SDS011;5273;51.290;6.918;2023-10-31T14:17:39;3.13;;;1.55;;
10450;SDS011;5273;51.290;6.918;2023-10-31T14:20:07;1.50;;;1.30;;
10450;SDS011;5273;51.290;6.918;2023-10-31T14:22:34;2.92;;;1.50;;
10450;SDS011;5273;51.290;6.918;2023-10-31T14:25:01;7.57;;;1.80;;
10450;SDS011;5273;51.290;6.918;2023-10-31T14:27:29;3.58;;;1.58;;
10450;SDS011;5273;51.290;6.918;2023-10-31T14:29:58;5.50;;;1.40;;
10450;SDS011;5273;51.290;6.918;2023-10-31T14:32:25;4.38;;;1.13;;
10450;SDS011;5273;51.290;6.918;2023-10-31T14:34:51;2.15;;;1.33;;
10450;SDS011;5273;51.290;6.918;2023-10-31T14:37:18;7.25;;;1.48;;
10450;SDS011;5273;51.290;6.918;2023-10-31T14:39:45;3.47;;;1.33;;
10450;SDS011;5273;51.290;6.918;2023-10-31T14:42:12;4.80;;;1.73;;
10450;SDS011;5273;51.290;6.918;2023-10-31T14:44:38;3.75;;;1.30;;
10450;SDS011;5273;51.290;6.918;2023-10-31T14:47:07;4.32;;;1.30;;
10450;SDS011;5273;51.290;6.918;2023-10-31T14:49:34;1.58;;;1.13;;
10450;SDS011;5273;51.290;6.918;2023-10-31T14:52:01;2.47;;;1.25;;